Time;durP1;ratioP1;P1;durP2;ratioP2;P2;SDS_P1;SDS_P2;PMS_P1;PMS_P2;Temp;Humidity;BMP_temperature;BMP_pressure;BME280_temperature;BME280_humidity;BME280_pressure;Samples;Min_cycle;Max_cycle;Signal;HPM_P1;HPM_P2
2023/04/28 00:02:00;;;;;;;3.85;2.28;;;;;;;8.14;51.72;95270.28;4947657;28;20622;-60
2023/04/28 00:04:27;;;;;;;4.07;2.10;;;;;;;8.13;52.60;95272.84;4948358;28;20351;-62
2023/04/28 00:06:55;;;;;;;3.85;2.25;;;;;;;8.08;52.18;95272.09;4948091;28;20319;-61
2023/04/28 00:09:23;;;;;;;1.95;1.85;;;;;;;8.07;52.22;95276.34;4944509;28;20638;-63
2023/04/28 00:11:49;;;;;;;2.15;2.00;;;;;;;8.14;52.81;95280.41;4944234;28;20215;-59
2023/04/28 00:14:16;;;;;;;2.92;1.98;;;;;;;8.18;52.36;95276.09;4948576;28;20719;-60
2023/04/28 00:16:43;;;;;;;4.63;1.92;;;;;;;8.10;52.21;95281.34;4948156;28;20351;-65
2023/04/28 00:19:09;;;;;;;2.15;2.00;;;;;;;8.02;52.44;95273.06;4948994;28;20339;-62
2023/04/28 00:21:36;;;;;;;3.80;1.83;;;;;;;8.09;52.82;95269.53;4946867;28;20767;-61
2023/04/28 00:24:04;;;;;;;4.80;2.30;;;;;;;8.11;51.92;95267.81;4948001;28;22949;-61
2023/04/28 00:26:31;;;;;;;3.10;2.20;;;;;;;8.07;52.90;95275.50;4946580;28;20683;-59
2023/04/28 00:28:58;;;;;;;2.97;2.30;;;;;;;8.10;53.00;95280.50;4943715;28;20379;-61
2023/04/28 00:31:24;;;;;;;2.50;2.30;;;;;;;8.01;52.65;95271.38;4946530;28;20292;-61
2023/04/28 00:33:51;;;;;;;3.70;2.17;;;;;;;8.01;53.58;95278.97;4946412;28;20271;-62
2023/04/28 00:36:18;;;;;;;4.95;3.28;;;;;;;8.06;53.01;95282.25;4949027;28;20261;-60
2023/04/28 00:38:44;;;;;;;2.13;1.92;;;;;;;8.00;53.16;95282.38;4946072;28;21030;-60
2023/04/28 00:41:14;;;;;;;5.70;2.97;;;;;;;7.99;52.28;95285.75;4948897;28;20209;-61
2023/04/28 00:43:45;;;;;;;2.83;2.22;;;;;;;8.07;53.18;95283.94;4945027;28;20981;-60
2023/04/28 00:46:16;;;;;;;2.00;1.80;;;;;;;8.00;52.72;95291.66;4947837;28;20213;-63
2023/04/28 00:48:42;;;;;;;2.05;1.95;;;;;;;8.09;52.85;95287.25;4944191;28;20229;-60
2023/04/28 00:51:09;;;;;;;2.67;2.47;;;;;;;8.09;52.33;95284.72;4947971;28;20315;-61
2023/04/28 00:53:37;;;;;;;5.75;2.63;;;;;;;8.11;51.97;95285.53;4944570;28;20233;-62
2023/04/28 00:56:04;;;;;;;2.38;2.17;;;;;;;8.06;52.85;95284.78;4940131;28;20291;-60
2023/04/28 00:58:34;;;;;;;2.17;1.98;;;;;;;8.08;52.63;95295.72;4947851;28;20233;-61
2023/04/28 01:01:03;;;;;;;3.50;2.25;;;;;;;8.06;52.82;95291.53;4949083;28;20207;-60
2023/04/28 01:03:30;;;;;;;2.95;1.98;;;;;;;8.06;52.89;95287.31;4950058;28;22129;-60
2023/04/28 01:05:58;;;;;;;3.22;2.25;;;;;;;8.04;52.50;95299.16;4945003;28;20584;-62
2023/04/28 01:08:28;;;;;;;2.70;2.28;;;;;;;7.99;52.97;95300.94;4947519;28;20785;-62
2023/04/28 01:10:55;;;;;;;3.10;2.47;;;;;;;7.89;53.34;95303.72;4943435;28;20213;-62
2023/04/28 01:13:21;;;;;;;6.82;3.13;;;;;;;7.91;53.88;95296.94;4946886;28;21577;-62
2023/04/28 01:15:50;;;;;;;4.13;2.20;;;;;;;7.79;53.49;95298.81;4944669;28;20300;-61
2023/04/28 01:18:16;;;;;;;2.60;1.77;;;;;;;7.71;53.34;95290.53;4948831;28;20335;-61
2023/04/28 01:20:43;;;;;;;4.75;2.63;;;;;;;7.63;54.17;95299.13;4943737;28;20212;-61
2023/04/28 01:23:13;;;;;;;2.97;2.58;;;;;;;7.61;54.39;95308.44;4947992;28;20686;-60
2023/04/28 01:25:42;;;;;;;4.68;2.53;;;;;;;7.61;54.79;95305.91;4945975;28;20323;-61
2023/04/28 01:28:09;;;;;;;2.67;2.47;;;;;;;7.48;54.66;95307.81;4941983;28;20423;-60
2023/04/28 01:30:36;;;;;;;3.35;2.20;;;;;;;7.48;54.47;95306.13;4944331;28;20296;-61
2023/04/28 01:33:03;;;;;;;3.53;2.35;;;;;;;7.48;54.02;95301.06;4942292;28;20213;-62
2023/04/28 01:35:30;;;;;;;4.75;1.83;;;;;;;7.49;54.61;95310.31;4945726;28;21781;-61
2023/04/28 01:37:56;;;;;;;3.13;2.30;;;;;;;7.49;53.88;95300.22;4947437;28;20687;-60
2023/04/28 01:40:23;;;;;;;7.82;2.00;;;;;;;7.45;54.22;95298.59;4947784;28;20336;-61
2023/04/28 01:42:51;;;;;;;4.03;2.17;;;;;;;7.39;54.68;95298.72;4943639;28;20307;-59
2023/04/28 01:45:18;;;;;;;4.30;2.30;;;;;;;7.39;55.22;95302.94;4943632;28;20839;-60
2023/04/28 01:47:45;;;;;;;3.13;2.17;;;;;;;7.32;55.22;95306.44;4943253;28;20406;-60
2023/04/28 01:50:11;;;;;;;2.85;2.22;;;;;;;7.33;54.77;95303.88;4948315;28;20311;-61
2023/04/28 01:52:38;;;;;;;4.45;2.40;;;;;;;7.31;55.08;95300.53;4947060;28;20428;-59
2023/04/28 01:55:06;;;;;;;3.20;2.90;;;;;;;7.24;55.34;95298.97;4947027;28;20372;-61
2023/04/28 01:57:34;;;;;;;5.00;2.65;;;;;;;7.19;54.83;95298.19;4948647;28;20229;-60
2023/04/28 02:00:02;;;;;;;4.00;2.70;;;;;;;7.15;55.19;95305.03;4947003;28;20753;-62
2023/04/28 02:02:29;;;;;;;5.63;2.90;;;;;;;7.02;55.44;95307.75;4948391;28;20220;-62
2023/04/28 02:04:56;;;;;;;4.50;2.40;;;;;;;7.14;54.88;95312.63;4948358;28;21773;-59
2023/04/28 02:07:23;;;;;;;5.55;2.60;;;;;;;7.09;54.84;95304.28;4948465;28;20745;-60
2023/04/28 02:09:50;;;;;;;5.85;2.50;;;;;;;7.13;55.17;95313.50;4947280;28;20299;-61
2023/04/28 02:12:17;;;;;;;6.25;3.10;;;;;;;6.98;55.60;95311.19;4947915;28;20307;-61
2023/04/28 02:14:44;;;;;;;5.72;2.85;;;;;;;7.02;55.69;95312.81;4948307;28;20292;-59
2023/04/28 02:17:12;;;;;;;4.28;2.67;;;;;;;7.01;55.26;95317.03;4948065;28;20236;-62
2023/04/28 02:19:38;;;;;;;4.43;2.80;;;;;;;6.90;55.49;95316.38;4948212;28;20316;-61
2023/04/28 02:22:06;;;;;;;2.92;2.35;;;;;;;6.91;55.77;95314.69;4947301;28;20686;-61
2023/04/28 02:24:35;;;;;;;3.42;2.70;;;;;;;6.92;56.63;95319.72;4948343;28;20623;-65
2023/04/28 02:27:02;;;;;;;3.28;2.88;;;;;;;6.91;56.00;95317.22;4948363;28;20756;-60
2023/04/28 02:29:29;;;;;;;3.40;2.38;;;;;;;6.94;55.60;95324.72;4946924;28;20197;-62
2023/04/28 02:31:55;;;;;;;7.45;2.53;;;;;;;6.80;56.13;95322.41;4948115;28;20679;-62
2023/04/28 02:34:23;;;;;;;3.33;2.53;;;;;;;6.82;56.43;95320.69;4946046;28;20911;-62
2023/04/28 02:36:50;;;;;;;2.30;2.10;;;;;;;6.90;56.19;95329.00;4946773;28;20706;-60
2023/04/28 02:39:17;;;;;;;2.20;2.10;;;;;;;6.80;55.97;95324.94;4948132;28;20320;-61
2023/04/28 02:41:43;;;;;;;2.50;2.20;;;;;;;6.74;56.58;95319.97;4946152;28;20272;-62
2023/04/28 02:44:10;;;;;;;7.00;3.17;;;;;;;6.86;56.48;95326.53;4947247;28;20296;-61
2023/04/28 02:46:37;;;;;;;3.33;2.60;;;;;;;6.83;55.66;95333.31;4948347;28;21394;-63
2023/04/28 02:49:03;;;;;;;3.50;2.15;;;;;;;6.80;56.78;95337.56;4950313;28;20686;-62
2023/04/28 02:51:32;;;;;;;2.67;2.47;;;;;;;6.79;56.60;95339.25;4950289;28;20257;-61
2023/04/28 02:53:58;;;;;;;3.10;2.58;;;;;;;6.81;56.14;95335.03;4950520;28;20605;-62
2023/04/28 02:56:25;;;;;;;3.30;2.50;;;;;;;6.81;56.38;95342.59;4950946;28;20692;-61
2023/04/28 02:58:52;;;;;;;2.60;2.40;;;;;;;6.91;56.86;95334.91;4949588;28;20245;-61
2023/04/28 03:01:18;;;;;;;2.20;2.03;;;;;;;6.89;56.15;95347.56;4950310;28;21327;-62
2023/04/28 03:03:45;;;;;;;4.38;2.47;;;;;;;7.00;56.59;95344.84;4951759;28;20212;-61
2023/04/28 03:06:12;;;;;;;11.70;2.67;;;;;;;6.95;55.49;95344.06;4951643;28;20296;-62
2023/04/28 03:08:40;;;;;;;4.93;2.53;;;;;;;6.91;55.59;95350.06;4951969;28;20219;-62
2023/04/28 03:11:07;;;;;;;5.75;2.17;;;;;;;6.94;55.81;95347.47;4950755;28;20325;-61
2023/04/28 03:13:34;;;;;;;2.95;2.30;;;;;;;6.93;55.29;95363.50;4951436;28;20218;-62
2023/04/28 03:16:01;;;;;;;2.40;2.25;;;;;;;6.91;55.39;95352.59;4950821;28;20209;-60
2023/04/28 03:18:28;;;;;;;5.47;2.83;;;;;;;6.99;55.33;95355.81;4951533;28;20300;-62
2023/04/28 03:20:54;;;;;;;3.15;2.50;;;;;;;7.11;55.44;95355.63;4949584;28;20667;-61
2023/04/28 03:23:21;;;;;;;2.20;2.10;;;;;;;7.15;55.14;95362.31;4952444;28;20335;-63
2023/04/28 03:25:49;;;;;;;4.35;2.38;;;;;;;7.17;54.72;95363.13;4949281;28;20208;-60
2023/04/28 03:28:16;;;;;;;5.05;2.85;;;;;;;7.25;56.06;95366.34;4951660;28;20208;-61
2023/04/28 03:30:43;;;;;;;3.13;2.83;;;;;;;7.31;54.67;95376.38;4951061;28;20359;-62
2023/04/28 03:33:09;;;;;;;5.05;2.50;;;;;;;7.36;55.32;95384.72;4950641;28;20213;-60
2023/04/28 03:35:36;;;;;;;4.57;4.13;;;;;;;7.37;54.30;95383.03;4948499;28;20213;-60
2023/04/28 03:38:03;;;;;;;6.60;2.20;;;;;;;7.43;54.65;95388.81;4950068;28;20351;-61
2023/04/28 03:40:30;;;;;;;2.97;2.05;;;;;;;7.36;54.73;95391.47;4950660;28;20319;-61
2023/04/28 03:42:58;;;;;;;3.83;2.85;;;;;;;7.46;54.83;95386.22;4951206;28;20224;-63
2023/04/28 03:45:25;;;;;;;2.63;2.42;;;;;;;7.60;54.90;95400.34;4950271;28;20312;-60
2023/04/28 03:47:51;;;;;;;2.53;2.33;;;;;;;7.61;54.74;95400.34;4950059;28;20213;-62
2023/04/28 03:50:18;;;;;;;3.97;2.40;;;;;;;7.71;54.35;95398.47;4950368;28;20360;-62
2023/04/28 03:52:45;;;;;;;3.67;2.72;;;;;;;7.79;53.70;95399.19;4950252;28;20207;-60
2023/04/28 03:55:12;;;;;;;3.35;2.33;;;;;;;7.83;52.27;95400.81;4951453;28;20429;-61
2023/04/28 03:57:38;;;;;;;3.90;2.35;;;;;;;7.85;52.98;95404.97;4950225;28;20225;-59
2023/04/28 04:00:08;;;;;;;2.80;2.60;;;;;;;7.92;52.29;95408.22;4950307;28;20688;-61
2023/04/28 04:02:35;;;;;;;3.05;2.80;;;;;;;8.00;52.50;95408.91;4950614;28;20240;-60
2023/04/28 04:05:02;;;;;;;5.35;2.40;;;;;;;8.11;51.81;95417.16;4950553;28;20205;-61
2023/04/28 04:07:29;;;;;;;4.30;2.83;;;;;;;8.24;51.88;95414.38;4950941;28;20328;-60
2023/04/28 04:09:55;;;;;;;5.15;4.30;;;;;;;8.30;51.92;95421.88;4949613;28;20316;-62
2023/04/28 04:12:22;;;;;;;4.75;2.88;;;;;;;8.52;51.27;95425.69;4950535;28;20205;-61
2023/04/28 04:14:49;;;;;;;4.95;3.72;;;;;;;9.39;48.64;95419.59;4949754;28;20312;-62
2023/04/28 04:17:17;;;;;;;5.90;4.45;;;;;;;10.49;46.32;95410.00;4949189;28;20209;-61
2023/04/28 04:19:44;;;;;;;3.83;3.42;;;;;;;11.60;44.14;95421.13;4950876;28;20260;-62
2023/04/28 04:22:10;;;;;;;4.13;3.13;;;;;;;12.67;41.37;95413.25;4949877;28;20760;-62
2023/04/28 04:24:37;;;;;;;4.72;2.55;;;;;;;13.46;39.90;95424.75;4949244;28;20447;-62
2023/04/28 04:27:04;;;;;;;2.53;2.33;;;;;;;13.96;38.68;95415.06;4949250;28;20335;-60
2023/04/28 04:29:30;;;;;;;3.72;2.50;;;;;;;14.38;37.11;95426.94;4949817;28;20287;-61
2023/04/28 04:31:57;;;;;;;9.20;2.60;;;;;;;14.72;36.20;95416.13;4950606;28;20235;-62
2023/04/28 04:34:25;;;;;;;2.80;2.60;;;;;;;15.29;34.95;95417.81;4949148;28;21577;-62
2023/04/28 04:36:52;;;;;;;5.57;4.03;;;;;;;15.62;33.80;95421.34;4950038;28;20320;-62
2023/04/28 04:39:18;;;;;;;28.80;15.75;;;;;;;15.62;33.84;95420.53;4949655;28;20248;-61
2023/04/28 04:41:45;;;;;;;4.70;4.18;;;;;;;15.52;34.08;95424.41;4949322;28;20273;-61
2023/04/28 04:44:12;;;;;;;3.33;2.70;;;;;;;15.31;34.25;95421.97;4950979;28;20376;-62
2023/04/28 04:46:38;;;;;;;5.28;3.30;;;;;;;15.25;34.75;95421.41;4949459;28;22135;-60
2023/04/28 04:49:06;;;;;;;3.10;2.80;;;;;;;15.41;34.44;95418.94;4949390;28;20236;-61
2023/04/28 04:51:34;;;;;;;7.55;2.85;;;;;;;15.70;33.77;95417.59;4949371;28;20244;-62
2023/04/28 04:54:01;;;;;;;11.25;2.83;;;;;;;15.97;33.05;95437.63;4950144;28;20296;-63
2023/04/28 04:56:27;;;;;;;4.95;2.83;;;;;;;16.19;32.74;95436.56;4949474;28;20209;-62
2023/04/28 04:58:54;;;;;;;7.90;2.83;;;;;;;16.57;32.85;95438.03;4947809;28;20967;-62
2023/04/28 05:01:21;;;;;;;5.07;3.50;;;;;;;16.93;31.43;95440.47;4948918;28;20240;-61
2023/04/28 05:03:47;;;;;;;8.95;5.55;;;;;;;17.14;30.81;95442.81;4948470;28;20264;-61
2023/04/28 05:06:14;;;;;;;9.40;4.95;;;;;;;17.10;30.74;95452.41;4948802;28;20300;-61
2023/04/28 05:08:42;;;;;;;3.95;3.03;;;;;;;17.49;30.46;95444.31;4947703;28;21760;-62
2023/04/28 05:11:09;;;;;;;2.60;2.38;;;;;;;17.38;30.69;95445.78;4947821;28;21118;-64
2023/04/28 05:13:36;;;;;;;2.33;2.17;;;;;;;17.35;30.49;95444.22;4949885;28;20213;-62
2023/04/28 05:16:03;;;;;;;3.65;3.30;;;;;;;17.24;31.26;95441.41;4948925;28;20299;-64
2023/04/28 05:18:29;;;;;;;5.55;3.05;;;;;;;17.48;30.66;95442.66;4948163;28;20296;-60
2023/04/28 05:20:56;;;;;;;6.40;2.85;;;;;;;17.59;30.47;95445.44;4949146;28;22077;-66
2023/04/28 05:23:23;;;;;;;4.65;2.85;;;;;;;18.10;30.19;95445.22;4948965;28;20319;-64
2023/04/28 05:25:52;;;;;;;2.92;2.63;;;;;;;18.54;29.44;95440.94;4949263;28;21159;-61
2023/04/28 05:28:18;;;;;;;4.07;2.65;;;;;;;20.52;27.27;95443.19;4948225;28;20769;-63
2023/04/28 05:30:45;;;;;;;5.97;3.20;;;;;;;23.42;23.56;95429.00;4948315;28;20276;-62
2023/04/28 05:33:12;;;;;;;3.63;3.03;;;;;;;25.78;21.32;95432.72;4948039;28;20667;-63
2023/04/28 05:35:39;;;;;;;4.88;2.67;;;;;;;27.08;19.72;95435.69;4948276;28;20810;-62
2023/04/28 05:38:06;;;;;;;4.03;3.03;;;;;;;27.34;19.55;95419.34;4948444;28;20217;-63
2023/04/28 05:40:33;;;;;;;3.58;2.33;;;;;;;27.80;19.43;95415.00;4948274;28;20579;-63
2023/04/28 05:43:01;;;;;;;3.88;2.95;;;;;;;28.48;18.24;95420.53;4949318;28;20315;-63
2023/04/28 05:45:28;;;;;;;5.28;2.53;;;;;;;29.69;17.86;95418.63;4948371;28;20280;-64
2023/04/28 05:47:55;;;;;;;2.97;2.05;;;;;;;30.97;16.58;95419.81;4948774;28;21132;-64
2023/04/28 05:50:22;;;;;;;2.40;2.13;;;;;;;31.27;15.89;95405.97;4948443;28;20308;-65
2023/04/28 05:52:49;;;;;;;4.85;2.58;;;;;;;31.32;16.31;95422.06;4947799;28;20850;-64
2023/04/28 05:55:15;;;;;;;5.20;2.70;;;;;;;31.63;15.44;95411.59;4948624;28;20756;-65
2023/04/28 05:57:42;;;;;;;4.20;3.33;;;;;;;32.18;15.16;95415.84;4948136;28;20677;-63
2023/04/28 06:00:12;;;;;;;3.05;2.65;;;;;;;33.51;14.49;95416.13;4947340;28;20271;-66
2023/04/28 06:02:38;;;;;;;2.05;1.95;;;;;;;34.84;13.18;95424.44;4948747;28;20288;-64
2023/04/28 06:05:06;;;;;;;7.10;2.80;;;;;;;36.06;12.54;95414.91;4949177;28;20296;-64
2023/04/28 06:07:32;;;;;;;4.78;2.42;;;;;;;37.06;11.86;95414.78;4948626;28;20237;-63
2023/04/28 06:09:59;;;;;;;3.42;2.55;;;;;;;37.82;11.85;95413.34;4948174;28;20652;-65
2023/04/28 06:12:26;;;;;;;2.90;2.60;;;;;;;38.15;11.37;95406.03;4948481;28;20213;-62
2023/04/28 06:14:54;;;;;;;2.53;2.17;;;;;;;39.07;11.07;95402.69;4949006;28;20522;-63
2023/04/28 06:17:22;;;;;;;4.32;2.80;;;;;;;39.72;11.02;95405.66;4948499;28;20213;-63
2023/04/28 06:19:50;;;;;;;3.22;2.88;;;;;;;39.86;10.41;95408.13;4949220;28;20217;-65
2023/04/28 06:22:16;;;;;;;7.35;3.13;;;;;;;40.30;9.57;95414.94;4951047;28;20717;-64
2023/04/28 06:24:43;;;;;;;4.82;4.35;;;;;;;40.25;10.31;95407.63;4952699;28;20205;-63
2023/04/28 06:27:10;;;;;;;6.60;2.80;;;;;;;40.24;10.18;95411.31;4952328;28;20877;-63
2023/04/28 06:29:37;;;;;;;4.03;2.70;;;;;;;40.26;10.48;95417.22;4951636;28;20369;-65
2023/04/28 06:32:04;;;;;;;4.70;3.35;;;;;;;40.88;9.89;95417.72;4951610;28;20291;-65
2023/04/28 06:34:34;;;;;;;5.00;2.75;;;;;;;41.44;9.28;95410.97;4952433;28;20224;-65
2023/04/28 06:37:01;;;;;;;6.60;2.70;;;;;;;42.00;9.45;95412.16;4952342;28;20308;-64
2023/04/28 06:39:27;;;;;;;3.33;3.00;;;;;;;42.38;9.28;95412.28;4952538;28;20703;-65
2023/04/28 06:41:54;;;;;;;6.13;2.95;;;;;;;42.66;9.33;95399.94;4949981;28;20934;-66
2023/04/28 06:44:20;;;;;;;3.78;3.15;;;;;;;42.65;9.05;95407.16;4951781;28;20983;-63
2023/04/28 06:46:47;;;;;;;7.00;2.78;;;;;;;42.76;9.22;95403.59;4950810;28;20240;-64
2023/04/28 06:49:14;;;;;;;3.55;2.53;;;;;;;43.20;8.65;95403.72;4952415;28;20751;-63
2023/04/28 06:51:42;;;;;;;3.80;2.70;;;;;;;43.38;8.71;95410.66;4951442;28;20545;-65
2023/04/28 06:54:09;;;;;;;6.90;2.78;;;;;;;43.49;8.68;95401.72;4951786;28;20307;-66
2023/04/28 06:56:35;;;;;;;2.75;2.55;;;;;;;43.70;8.64;95405.47;4950434;28;20305;-65
2023/04/28 06:59:02;;;;;;;4.80;3.65;;;;;;;43.66;8.57;95399.81;4952042;28;20212;-67
2023/04/28 07:01:29;;;;;;;4.72;2.67;;;;;;;43.40;8.42;95398.66;4951830;28;20316;-64
2023/04/28 07:03:55;;;;;;;6.03;3.47;;;;;;;43.46;8.57;95396.88;4951124;28;20209;-65
2023/04/28 07:06:22;;;;;;;3.58;3.08;;;;;;;43.62;8.33;95400.56;4949901;28;20288;-64
2023/04/28 07:08:50;;;;;;;8.00;2.55;;;;;;;43.37;8.55;95390.31;4951121;28;20353;-63
2023/04/28 07:11:17;;;;;;;3.15;2.63;;;;;;;43.27;8.44;95400.91;4951587;28;20324;-65
2023/04/28 07:13:45;;;;;;;3.00;2.72;;;;;;;43.32;8.29;95392.91;4949835;28;20333;-65
2023/04/28 07:16:11;;;;;;;5.72;2.53;;;;;;;43.11;8.17;95394.50;4951863;28;20201;-65
2023/04/28 07:18:38;;;;;;;3.47;2.50;;;;;;;43.18;8.38;95399.66;4950926;28;20299;-64
2023/04/28 07:21:05;;;;;;;3.55;2.90;;;;;;;43.01;8.53;95394.38;4951385;28;20272;-64
2023/04/28 07:23:32;;;;;;;3.50;2.55;;;;;;;43.19;7.97;95396.75;4950320;28;20630;-65
2023/04/28 07:26:00;;;;;;;4.38;3.00;;;;;;;43.35;8.13;95392.44;4952235;28;20750;-64
2023/04/28 07:28:27;;;;;;;4.55;2.13;;;;;;;43.06;8.27;95392.53;4950907;28;20292;-65
2023/04/28 07:30:53;;;;;;;2.42;2.17;;;;;;;43.01;8.19;95392.50;4950397;28;20319;-65
2023/04/28 07:33:20;;;;;;;3.28;2.35;;;;;;;43.46;7.90;95386.16;4948336;28;21160;-65
2023/04/28 07:35:48;;;;;;;3.10;2.90;;;;;;;42.83;7.94;95395.41;4949328;28;20215;-65
2023/04/28 07:38:15;;;;;;;6.53;2.60;;;;;;;42.62;8.27;95396.94;4950152;28;20232;-63
2023/04/28 07:40:43;;;;;;;6.00;2.83;;;;;;;43.23;8.01;95386.41;4950892;28;20205;-64
2023/04/28 07:43:11;;;;;;;2.45;2.05;;;;;;;43.68;7.95;95392.34;4948001;28;20208;-65
2023/04/28 07:45:39;;;;;;;3.08;2.45;;;;;;;43.14;8.04;95393.19;4950198;28;20237;-63
2023/04/28 07:48:06;;;;;;;4.00;2.28;;;;;;;43.37;8.14;95384.97;4950236;28;20300;-64
2023/04/28 07:50:33;;;;;;;6.55;2.30;;;;;;;43.26;7.87;95375.22;4949726;28;20790;-65
2023/04/28 07:52:59;;;;;;;5.22;2.33;;;;;;;43.63;7.71;95384.25;4951212;28;20201;-63
2023/04/28 07:55:26;;;;;;;2.80;2.22;;;;;;;43.13;7.98;95378.19;4949882;28;20535;-64
2023/04/28 07:57:54;;;;;;;3.83;3.53;;;;;;;43.75;7.98;95387.63;4950954;28;20204;-65
2023/04/28 08:00:22;;;;;;;4.78;3.28;;;;;;;42.90;7.77;95379.22;4950149;28;20594;-65
2023/04/28 08:02:48;;;;;;;2.33;2.13;;;;;;;43.61;7.73;95381.00;4949711;28;20655;-65
2023/04/28 08:05:16;;;;;;;2.55;2.22;;;;;;;43.82;7.54;95386.59;4948543;28;21783;-65
2023/04/28 08:07:42;;;;;;;2.63;2.42;;;;;;;43.31;7.78;95375.28;4950156;28;20356;-64
2023/04/28 08:10:10;;;;;;;5.75;2.63;;;;;;;43.85;7.74;95375.38;4949484;28;20304;-66
2023/04/28 08:12:38;;;;;;;5.60;2.92;;;;;;;44.30;7.61;95378.50;4949251;28;20396;-65
2023/04/28 08:15:05;;;;;;;2.15;2.00;;;;;;;44.65;7.31;95379.91;4949051;28;20204;-65
2023/04/28 08:17:33;;;;;;;2.35;2.08;;;;;;;44.39;7.32;95385.06;4949830;28;20375;-65
2023/04/28 08:20:00;;;;;;;4.40;2.13;;;;;;;44.31;7.33;95387.38;4948195;28;20299;-64
2023/04/28 08:22:26;;;;;;;5.07;2.60;;;;;;;44.02;7.46;95384.16;4949806;28;20290;-66
2023/04/28 08:24:53;;;;;;;3.28;3.05;;;;;;;43.18;7.72;95386.28;4948578;28;20869;-66
2023/04/28 08:27:20;;;;;;;3.38;2.33;;;;;;;43.11;7.78;95381.91;4948713;28;20209;-66
2023/04/28 08:29:46;;;;;;;3.92;1.92;;;;;;;43.19;7.60;95382.56;4948411;28;20355;-65
2023/04/28 08:32:13;;;;;;;4.47;2.30;;;;;;;43.24;7.69;95375.44;4948995;28;20903;-67
2023/04/28 08:34:41;;;;;;;2.60;2.33;;;;;;;43.59;7.73;95368.91;4947712;28;20312;-64
2023/04/28 08:37:08;;;;;;;3.25;2.20;;;;;;;43.81;7.58;95382.28;4949033;28;20779;-64
2023/04/28 08:39:35;;;;;;;2.13;2.00;;;;;;;43.49;7.71;95377.63;4950331;28;20216;-65
2023/04/28 08:42:04;;;;;;;2.38;2.15;;;;;;;43.00;7.65;95385.53;4948998;28;20626;-65
2023/04/28 08:44:37;;;;;;;2.85;2.20;;;;;;;43.17;7.41;95373.97;4949822;28;20205;-66
2023/04/28 08:47:10;;;;;;;6.25;2.65;;;;;;;42.65;7.80;95377.75;4949336;28;20209;-64
2023/04/28 08:49:38;;;;;;;2.40;2.30;;;;;;;42.43;8.13;95364.31;4949200;28;20213;-65
2023/04/28 08:52:11;;;;;;;2.70;2.47;;;;;;;42.57;7.93;95364.78;4948954;28;20315;-64
2023/04/28 08:54:39;;;;;;;3.35;2.17;;;;;;;42.33;7.92;95364.13;4945838;28;20217;-63
2023/04/28 08:57:09;;;;;;;2.45;2.30;;;;;;;42.59;8.02;95364.53;4944632;28;20206;-65
2023/04/28 08:59:38;;;;;;;4.03;2.67;;;;;;;41.67;8.05;95365.59;4946010;28;20292;-63
2023/04/28 09:02:05;;;;;;;4.05;2.33;;;;;;;40.97;8.47;95355.03;4946581;28;20718;-64
2023/04/28 09:04:32;;;;;;;2.63;2.42;;;;;;;40.58;8.65;95355.72;4944547;28;20813;-64
2023/04/28 09:06:58;;;;;;;1.90;1.80;;;;;;;39.98;9.00;95355.78;4946336;28;20348;-65
2023/04/28 09:09:29;;;;;;;4.78;4.30;;;;;;;39.21;9.32;95360.81;4948664;28;20276;-67
2023/04/28 09:11:59;;;;;;;5.93;5.22;;;;;;;38.25;9.44;95352.47;4945111;28;20306;-65
2023/04/28 09:14:27;;;;;;;6.03;5.00;;;;;;;37.33;10.38;95356.41;4947462;28;20211;-67
2023/04/28 09:16:54;;;;;;;6.03;4.88;;;;;;;35.86;10.78;95342.63;4944537;28;20503;-67
2023/04/28 09:19:22;;;;;;;5.50;4.50;;;;;;;34.56;11.62;95345.19;4945015;28;20209;-68
2023/04/28 09:21:54;;;;;;;5.50;3.08;;;;;;;33.31;12.34;95342.94;4948914;28;20241;-65
2023/04/28 09:24:29;;;;;;;52.85;38.67;;;;;;;31.82;13.62;95347.28;4943625;28;20948;-66
2023/04/28 09:26:56;;;;;;;11.90;9.93;;;;;;;30.92;13.83;95333.75;4938610;28;20603;-68
2023/04/28 09:29:23;;;;;;;6.38;4.85;;;;;;;29.71;14.65;95348.53;4939822;28;20255;-67
2023/04/28 09:31:50;;;;;;;4.82;4.43;;;;;;;28.29;15.39;95333.47;4941401;28;20224;-66
2023/04/28 09:34:17;;;;;;;26.52;18.70;;;;;;;27.18;16.51;95340.91;4942686;28;20764;-68
2023/04/28 09:36:43;;;;;;;12.15;9.80;;;;;;;25.71;17.65;95328.34;4937350;28;20339;-67
2023/04/28 09:39:10;;;;;;;13.68;8.15;;;;;;;24.49;18.90;95337.28;4939686;28;22503;-66
2023/04/28 09:41:40;;;;;;;6.68;5.38;;;;;;;23.44;19.91;95343.28;4942629;28;20327;-66
2023/04/28 09:44:11;;;;;;;3.40;2.75;;;;;;;22.79;20.28;95331.13;4944338;28;20307;-67
2023/04/28 09:46:38;;;;;;;5.15;3.40;;;;;;;22.26;20.76;95336.03;4944677;28;20219;-69
2023/04/28 09:49:05;;;;;;;3.60;2.33;;;;;;;21.72;21.19;95339.97;4948353;28;20643;-63
2023/04/28 09:51:31;;;;;;;3.28;2.28;;;;;;;21.55;21.98;95332.59;4948347;28;20272;-62
2023/04/28 09:54:00;;;;;;;3.92;1.90;;;;;;;21.38;21.91;95336.41;4948424;28;20944;-66
2023/04/28 09:56:28;;;;;;;2.53;1.85;;;;;;;21.08;22.05;95332.53;4952282;28;21707;-63
2023/04/28 09:58:57;;;;;;;2.47;2.35;;;;;;;20.75;22.34;95336.56;4951642;28;20667;-64
2023/04/28 10:01:25;;;;;;;5.30;2.05;;;;;;;20.55;22.46;95325.00;4952800;28;20200;-65
2023/04/28 10:03:53;;;;;;;2.03;1.92;;;;;;;20.49;22.54;95314.31;4953151;28;20770;-63
2023/04/28 10:06:20;;;;;;;2.92;2.45;;;;;;;20.27;23.20;95310.56;4952518;28;20213;-65
2023/04/28 10:08:48;;;;;;;2.33;2.13;;;;;;;20.16;23.05;95318.19;4953340;28;20209;-63
2023/04/28 10:11:16;;;;;;;6.97;2.65;;;;;;;20.14;22.68;95319.22;4953028;28;20209;-64
2023/04/28 10:13:43;;;;;;;3.55;2.40;;;;;;;19.98;22.81;95312.53;4953017;28;20232;-63
2023/04/28 10:16:14;;;;;;;4.38;2.92;;;;;;;19.94;22.93;95313.66;4952540;28;20209;-63
2023/04/28 10:18:43;;;;;;;4.15;2.15;;;;;;;19.79;23.04;95319.00;4952620;28;20217;-62
2023/04/28 10:21:12;;;;;;;2.15;2.05;;;;;;;19.63;23.23;95314.00;4952510;28;20409;-64
2023/04/28 10:24:16;;;;;;;10.02;5.07;;;;;;;19.59;22.94;95310.78;4953132;28;20201;-64
2023/04/28 10:27:10;;;;;;;3.75;3.05;;;;;;;19.23;23.51;95313.97;4952013;28;20288;-63
2023/04/28 10:29:37;;;;;;;5.60;3.67;;;;;;;19.20;23.90;95311.56;4950965;28;20332;-63
2023/04/28 10:32:22;;;;;;;6.20;5.20;;;;;;;19.11;23.63;95301.84;4951219;28;20235;-64
2023/04/28 10:34:50;;;;;;;5.35;2.58;;;;;;;19.07;24.05;95304.72;4951584;28;20208;-63
2023/04/28 10:37:17;;;;;;;3.65;2.10;;;;;;;19.12;24.22;95298.34;4953473;28;20208;-62
2023/04/28 10:40:21;;;;;;;4.55;2.20;;;;;;;19.06;23.96;95288.41;4948363;28;20205;-64
2023/04/28 10:42:56;;;;;;;2.97;1.52;;;;;;;18.94;23.76;95284.88;4950943;28;20231;-63
2023/04/28 10:46:00;;;;;;;4.00;2.08;;;;;;;18.97;24.37;95281.28;4951978;28;20287;-64
2023/04/28 10:48:58;;;;;;;7.13;2.45;;;;;;;19.04;24.11;95285.16;4951482;28;20846;-65
2023/04/28 10:51:29;;;;;;;4.93;1.90;;;;;;;19.04;24.59;95280.00;4926402;28;20610;-64
2023/04/28 10:54:16;;;;;;;3.20;2.15;;;;;;;18.95;24.38;95280.56;4952112;28;20213;-62
2023/04/28 10:57:17;;;;;;;7.50;3.20;;;;;;;18.81;24.60;95281.41;4951342;28;20224;-63
2023/04/28 10:59:44;;;;;;;2.15;2.00;;;;;;;18.67;24.67;95274.56;4951931;28;20209;-63
2023/04/28 11:02:37;;;;;;;5.05;2.50;;;;;;;18.62;24.76;95268.84;4951594;28;20290;-64
2023/04/28 11:05:17;;;;;;;3.13;2.40;;;;;;;18.67;24.28;95266.84;4951939;28;20670;-63
2023/04/28 11:08:35;;;;;;;2.45;1.83;;;;;;;18.64;24.30;95259.28;4949780;28;20228;-65
2023/04/28 11:11:15;;;;;;;2.47;1.90;;;;;;;18.72;23.67;95258.81;4950165;28;20232;-64
2023/04/28 11:13:45;;;;;;;2.45;2.22;;;;;;;18.75;24.70;95256.06;4951703;28;20252;-62
2023/04/28 11:16:14;;;;;;;2.33;2.15;;;;;;;18.54;24.37;95257.38;4950393;28;21399;-62
2023/04/28 11:18:50;;;;;;;2.08;1.98;;;;;;;18.59;24.94;95256.19;4950889;28;20208;-62
2023/04/28 11:21:19;;;;;;;3.63;2.00;;;;;;;18.54;24.90;95252.22;4952058;28;20209;-62
2023/04/28 11:23:47;;;;;;;3.97;1.88;;;;;;;18.59;25.10;95247.59;4951669;28;20295;-62
2023/04/28 11:26:15;;;;;;;3.10;2.05;;;;;;;18.55;25.98;95248.72;4951947;28;20309;-63
2023/04/28 11:28:49;;;;;;;2.72;2.53;;;;;;;18.52;25.61;95248.91;4950529;28;20213;-63
2023/04/28 11:31:18;;;;;;;2.65;1.92;;;;;;;18.43;26.05;95241.75;4950424;28;20231;-65
2023/04/28 11:33:52;;;;;;;2.75;2.20;;;;;;;18.48;25.80;95232.00;4949923;28;21587;-61
2023/04/28 11:36:29;;;;;;;2.85;2.15;;;;;;;18.54;25.79;95229.06;4951687;28;20741;-61
2023/04/28 11:38:56;;;;;;;5.30;2.83;;;;;;;18.63;25.71;95228.50;4951236;28;20303;-64
2023/04/28 11:41:24;;;;;;;2.63;2.42;;;;;;;18.57;24.95;95228.84;4949463;28;20418;-65
2023/04/28 11:43:51;;;;;;;2.88;2.05;;;;;;;18.48;25.54;95221.72;4951936;28;21420;-64
2023/04/28 11:46:19;;;;;;;4.20;2.50;;;;;;;18.39;26.30;95211.97;4947276;28;20263;-63